Homer, Ohio
Current Conditions -  °F | °C
As of 10:36 PM on Friday 31 Oct 2014 (Local Time) from K4I3 Reporting Station
Drizzle Drizzle  
Wind Chill: 33°   Ceiling: 1000
Heat Index: 39°   Visibility: 10mi
Dew Point: 37°   Wind: 9mph
Humidity: 93%   Direction: 330°NNW
Pressure: 29.91"   Gusts: 17mph
Location:  40.25°N, 82.51°W
Report Text: K4I3 010236Z AUTO 33008G15KT 10SM DZ BKN010 OVC013 04/03 A2991 RMK AO2
Loading
Personal Weather Stations






























Interactive Weather Map New forecast layout! Learn more

10-Day Weather Forecast

Advertisements
Track Severe Weather on mobile